Time;durP1;ratioP1;P1;durP2;ratioP2;P2;SDS_P1;SDS_P2;PMS_P1;PMS_P2;Temp;Humidity;BMP_temperature;BMP_pressure;BME280_temperature;BME280_humidity;BME280_pressure;Samples;Min_cycle;Max_cycle;Signal;HPM_P1;HPM_P2
2023/03/09 00:01:38;;;;;;;27.77;7.22;;;12.50;99.90;;;;;;5091640;28;20028;-66
2023/03/09 00:04:07;;;;;;;35.70;8.15;;;12.50;99.90;;;;;;5091322;28;20020;-67
2023/03/09 00:06:33;;;;;;;37.63;7.25;;;12.50;99.90;;;;;;5089579;28;20037;-66
2023/03/09 00:08:59;;;;;;;36.00;7.07;;;12.50;99.90;;;;;;5090829;28;20033;-67
2023/03/09 00:11:25;;;;;;;33.28;6.70;;;12.50;99.90;;;;;;5074671;28;20044;-67
2023/03/09 00:13:52;;;;;;;37.95;7.95;;;12.50;99.90;;;;;;5074777;28;20385;-67
2023/03/09 00:16:26;;;;;;;43.53;8.43;;;12.50;99.90;;;;;;5082658;28;20024;-66
2023/03/09 00:18:54;;;;;;;27.02;6.55;;;12.40;99.90;;;;;;5095143;28;20074;-67
2023/03/09 00:21:39;;;;;;;30.42;7.45;;;12.40;99.90;;;;;;5095022;28;20074;-66
2023/03/09 00:24:16;;;;;;;32.80;7.25;;;12.40;99.90;;;;;;5095166;28;20050;-67
2023/03/09 00:26:55;;;;;;;41.13;8.48;;;12.40;99.90;;;;;;5094468;28;20039;-67
2023/03/09 00:29:22;;;;;;;29.30;7.38;;;12.50;99.90;;;;;;5094818;28;20520;-67
2023/03/09 00:31:48;;;;;;;;;;;12.40;99.90;;;;;;5095036;28;20028;-67
2023/03/09 00:34:15;;;;;;;41.45;7.68;;;12.40;99.90;;;;;;5076304;28;19972;-67
2023/03/09 00:36:43;;;;;;;39.20;9.00;;;12.40;99.90;;;;;;5089020;28;20385;-67
2023/03/09 00:39:13;;;;;;;35.28;8.63;;;12.50;99.90;;;;;;5074730;28;20124;-67
2023/03/09 00:41:41;;;;;;;34.00;7.60;;;12.50;99.90;;;;;;5073980;28;20107;-67
2023/03/09 00:44:10;;;;;;;44.80;9.07;;;12.60;99.90;;;;;;5074335;28;20411;-66
2023/03/09 00:46:38;;;;;;;39.05;8.80;;;12.60;99.90;;;;;;5074084;28;20307;-67
2023/03/09 00:49:06;;;;;;;34.92;7.72;;;12.60;99.90;;;;;;5074005;28;20078;-67
2023/03/09 00:51:34;;;;;;;44.67;8.68;;;12.60;99.90;;;;;;5074091;28;20107;-67
2023/03/09 00:54:00;;;;;;;43.13;8.43;;;12.70;99.90;;;;;;5055863;28;20032;-67
2023/03/09 00:56:29;;;;;;;43.95;9.15;;;12.70;99.90;;;;;;5073853;28;20021;-67
2023/03/09 00:58:56;;;;;;;41.50;9.98;;;12.70;99.90;;;;;;5073973;28;20214;-67
2023/03/09 01:01:22;;;;;;;40.78;9.43;;;12.80;99.90;;;;;;5073881;28;20058;-67
2023/03/09 01:03:50;;;;;;;41.40;10.75;;;12.80;99.90;;;;;;5073779;28;20381;-67
2023/03/09 01:06:17;;;;;;;46.45;11.23;;;12.80;99.90;;;;;;5073527;28;20047;-66
2023/03/09 01:08:45;;;;;;;50.35;11.52;;;12.80;99.90;;;;;;5073896;28;20037;-67
2023/03/09 01:11:13;;;;;;;43.42;10.32;;;12.90;99.90;;;;;;5073454;28;20032;-63
2023/03/09 01:13:40;;;;;;;53.38;11.88;;;12.90;99.90;;;;;;5073519;28;20071;-66
2023/03/09 01:16:08;;;;;;;46.20;11.25;;;12.90;99.90;;;;;;5073047;28;20364;-66
2023/03/09 01:18:34;;;;;;;51.92;11.18;;;12.90;99.90;;;;;;5073529;28;20078;-67
2023/03/09 01:21:00;;;;;;;53.13;11.70;;;13.00;99.90;;;;;;5073591;28;20077;-66
2023/03/09 01:23:27;;;;;;;51.70;9.88;;;13.00;99.90;;;;;;5073801;28;20024;-67
2023/03/09 01:25:53;;;;;;;51.15;10.43;;;13.00;99.90;;;;;;5073199;28;20040;-67
2023/03/09 01:28:19;;;;;;;57.92;11.27;;;13.10;99.90;;;;;;5073664;28;20039;-67
2023/03/09 01:30:45;;;;;;;53.20;11.23;;;13.00;99.90;;;;;;5073652;28;20024;-67
2023/03/09 01:33:11;;;;;;;43.35;10.68;;;13.00;99.90;;;;;;5073068;28;20031;-66
2023/03/09 01:35:40;;;;;;;48.60;10.30;;;13.00;99.90;;;;;;5073467;28;20129;-67
2023/03/09 01:38:07;;;;;;;46.85;10.80;;;12.90;99.90;;;;;;5056435;28;20043;-67
2023/03/09 01:40:34;;;;;;;;;;;12.90;99.90;;;;;;5035600;28;20025;-67
2023/03/09 01:43:42;;;;;;;38.50;9.88;;;13.00;99.90;;;;;;5053344;28;19905;-67
2023/03/09 01:46:24;;;;;;;45.88;9.82;;;13.00;99.90;;;;;;5053061;28;20020;-67
2023/03/09 01:49:11;;;;;;;52.40;9.75;;;13.00;99.90;;;;;;5052976;28;20401;-67
2023/03/09 01:51:57;;;;;;;38.85;9.50;;;12.90;99.90;;;;;;5052805;28;20171;-67
2023/03/09 01:54:36;;;;;;;47.03;10.40;;;12.90;99.90;;;;;;5053170;28;20025;-67
2023/03/09 01:57:21;;;;;;;42.72;9.27;;;12.90;99.90;;;;;;5034447;28;20017;-68
2023/03/09 01:59:50;;;;;;;39.38;9.18;;;12.90;99.90;;;;;;5052972;28;20041;-67
2023/03/09 02:02:19;;;;;;;37.58;8.90;;;12.90;99.90;;;;;;5052816;28;20525;-66
2023/03/09 02:04:51;;;;;;;42.28;9.50;;;12.90;99.90;;;;;;5052529;28;20032;-67
2023/03/09 02:07:21;;;;;;;48.45;9.93;;;12.80;99.90;;;;;;5062530;28;20106;-67
2023/03/09 02:09:59;;;;;;;38.33;9.38;;;12.90;99.90;;;;;;5054366;28;20434;-66
2023/03/09 02:12:26;;;;;;;49.28;9.80;;;12.80;99.90;;;;;;5072542;28;20028;-67
2023/03/09 02:14:52;;;;;;;35.95;8.30;;;12.80;99.90;;;;;;5072299;28;20032;-67
2023/03/09 02:17:19;;;;;;;41.08;8.52;;;12.80;99.90;;;;;;5072706;28;20060;-66
2023/03/09 02:20:09;;;;;;;37.00;8.95;;;12.80;99.90;;;;;;5072544;28;20314;-67
2023/03/09 02:22:38;;;;;;;42.85;8.85;;;12.80;99.90;;;;;;5072175;28;20071;-66
2023/03/09 02:25:32;;;;;;;42.38;8.70;;;12.70;99.90;;;;;;5072201;28;20479;-67
2023/03/09 02:27:59;;;;;;;37.03;8.00;;;12.60;99.90;;;;;;5065717;28;20044;-66
2023/03/09 02:30:28;;;;;;;31.90;8.20;;;12.60;99.90;;;;;;5072147;28;20032;-67
2023/03/09 02:33:25;;;;;;;30.23;7.18;;;12.50;99.90;;;;;;5072108;28;20091;-66
2023/03/09 02:35:55;;;;;;;32.60;6.60;;;12.40;99.90;;;;;;5072505;28;20017;-67
2023/03/09 02:38:22;;;;;;;37.38;7.18;;;12.40;99.90;;;;;;5071866;28;20025;-67
2023/03/09 02:40:49;;;;;;;37.40;8.05;;;12.40;99.90;;;;;;5054112;28;20064;-67
2023/03/09 02:43:19;;;;;;;29.63;8.13;;;12.40;99.90;;;;;;5072205;28;20364;-67
2023/03/09 02:45:47;;;;;;;37.58;8.20;;;12.30;99.90;;;;;;5071885;28;20024;-67
2023/03/09 02:48:13;;;;;;;37.05;8.80;;;12.30;99.90;;;;;;5071579;28;20503;-67
2023/03/09 02:50:39;;;;;;;41.07;8.57;;;12.30;99.90;;;;;;5071732;28;20029;-67
2023/03/09 02:53:07;;;;;;;38.40;7.93;;;12.30;99.90;;;;;;5072211;28;20390;-68
2023/03/09 02:55:39;;;;;;;31.52;7.45;;;12.30;99.90;;;;;;5071341;28;20032;-67
2023/03/09 02:58:08;;;;;;;40.72;8.07;;;12.20;99.90;;;;;;5071554;28;20051;-62
2023/03/09 03:00:34;;;;;;;31.13;7.40;;;12.20;99.90;;;;;;5079108;28;20028;-66
2023/03/09 03:03:01;;;;;;;36.20;6.78;;;12.20;99.90;;;;;;5071301;28;20041;-65
2023/03/09 03:05:28;;;;;;;38.08;7.47;;;12.20;99.90;;;;;;5047746;28;20036;-67
2023/03/09 03:07:54;;;;;;;32.65;6.57;;;12.20;99.90;;;;;;5049047;28;20144;-62
2023/03/09 03:10:22;;;;;;;42.63;6.90;;;12.20;99.90;;;;;;5037111;28;20482;-68
2023/03/09 03:12:48;;;;;;;34.85;5.82;;;12.30;99.90;;;;;;5030550;28;20279;-68
2023/03/09 03:15:14;;;;;;;28.23;5.03;;;12.30;99.90;;;;;;5030541;28;20072;-68
2023/03/09 03:17:41;;;;;;;38.33;5.73;;;12.40;99.90;;;;;;5031858;28;20021;-68
2023/03/09 03:20:12;;;;;;;29.65;4.70;;;12.40;99.90;;;;;;5031920;28;20036;-68
2023/03/09 03:22:42;;;;;;;27.70;5.18;;;12.40;99.90;;;;;;5031470;28;20025;-67
2023/03/09 03:25:11;;;;;;;31.83;4.72;;;12.40;99.90;;;;;;5031474;28;20064;-67
2023/03/09 03:27:37;;;;;;;31.90;5.18;;;12.40;99.90;;;;;;5032167;28;20041;-68
2023/03/09 03:30:07;;;;;;;24.37;4.70;;;12.50;99.90;;;;;;5031922;28;20048;-68
2023/03/09 03:32:33;;;;;;;30.80;5.70;;;12.50;99.90;;;;;;5032340;28;20375;-70
2023/03/09 03:35:00;;;;;;;34.87;5.53;;;12.40;99.90;;;;;;5031811;28;20076;-65
2023/03/09 03:37:27;;;;;;;26.25;5.13;;;12.40;99.90;;;;;;5042886;28;20052;-68
2023/03/09 03:39:56;;;;;;;31.20;5.22;;;12.40;99.90;;;;;;5053354;28;20079;-66
2023/03/09 03:42:22;;;;;;;27.95;4.82;;;12.40;99.90;;;;;;5054608;28;20048;-67
2023/03/09 03:44:48;;;;;;;48.07;6.13;;;12.50;99.90;;;;;;5054812;28;20104;-69
2023/03/09 03:47:14;;;;;;;30.73;5.90;;;12.50;99.90;;;;;;5054431;28;20148;-67
2023/03/09 03:49:40;;;;;;;31.60;5.77;;;12.50;99.90;;;;;;5054564;28;20029;-66
2023/03/09 03:52:07;;;;;;;33.07;5.83;;;12.40;99.90;;;;;;5054866;28;20032;-67
2023/03/09 03:54:34;;;;;;;26.65;5.57;;;12.40;99.90;;;;;;5054900;28;20692;-67
2023/03/09 03:57:01;;;;;;;31.85;6.47;;;12.40;99.90;;;;;;5054901;28;20548;-67
2023/03/09 03:59:27;;;;;;;31.02;6.15;;;12.40;99.90;;;;;;5055462;28;20017;-66
2023/03/09 04:01:53;;;;;;;33.60;7.28;;;12.40;99.90;;;;;;5055447;28;20021;-67
2023/03/09 04:04:20;;;;;;;34.23;6.60;;;12.50;99.90;;;;;;5056077;28;20029;-66
2023/03/09 04:06:47;;;;;;;;;;;12.50;99.90;;;;;;5060613;28;20036;-66
2023/03/09 04:09:13;;;;;;;18.73;5.03;;;12.50;99.90;;;;;;5075155;28;19966;-66
2023/03/09 04:11:39;;;;;;;28.40;5.87;;;12.60;99.90;;;;;;5075106;28;20025;-66
2023/03/09 04:14:06;;;;;;;28.23;6.43;;;12.60;99.90;;;;;;5075430;28;20031;-67
2023/03/09 04:16:32;;;;;;;27.13;6.05;;;12.70;99.90;;;;;;5075032;28;20025;-67
2023/03/09 04:18:59;;;;;;;14.73;4.60;;;12.70;99.90;;;;;;5075336;28;20028;-65
2023/03/09 04:21:25;;;;;;;23.10;4.75;;;12.70;99.90;;;;;;5075370;28;20343;-67
2023/03/09 04:23:51;;;;;;;21.00;5.13;;;12.80;99.90;;;;;;5076088;28;20460;-67
2023/03/09 04:26:17;;;;;;;25.50;4.87;;;12.80;99.90;;;;;;5075594;28;20028;-67
2023/03/09 04:28:43;;;;;;;27.75;5.95;;;12.80;99.90;;;;;;5076034;28;20086;-67
2023/03/09 04:31:09;;;;;;;26.57;5.53;;;12.80;99.90;;;;;;5076160;28;20456;-67
2023/03/09 04:33:36;;;;;;;19.50;5.40;;;12.80;99.90;;;;;;5075918;28;20115;-67
2023/03/09 04:36:02;;;;;;;30.30;5.40;;;12.80;99.90;;;;;;5075550;28;20427;-67
2023/03/09 04:38:28;;;;;;;23.17;5.60;;;12.80;99.90;;;;;;5075467;28;20083;-66
2023/03/09 04:40:54;;;;;;;23.73;5.27;;;12.90;99.90;;;;;;5075497;28;20024;-67
2023/03/09 04:43:20;;;;;;;23.30;5.27;;;12.90;99.90;;;;;;5075249;28;20016;-67
2023/03/09 04:45:47;;;;;;;21.90;4.47;;;12.90;99.90;;;;;;5075289;28;20428;-67
2023/03/09 04:48:13;;;;;;;14.18;4.88;;;12.90;99.90;;;;;;5075120;28;20036;-66
2023/03/09 04:50:39;;;;;;;20.43;4.80;;;12.90;99.90;;;;;;5075123;28;20444;-67
2023/03/09 04:53:05;;;;;;;21.03;5.10;;;13.00;99.90;;;;;;5074924;28;20469;-66
2023/03/09 04:55:33;;;;;;;20.07;5.20;;;12.90;99.90;;;;;;5074985;28;20143;-66
2023/03/09 04:57:59;;;;;;;19.75;5.20;;;13.00;99.90;;;;;;5075064;28;20032;-66
2023/03/09 05:00:25;;;;;;;16.77;4.95;;;12.90;99.90;;;;;;5075246;28;20450;-66
2023/03/09 05:02:52;;;;;;;15.82;4.40;;;12.90;99.90;;;;;;5091020;28;20032;-67
2023/03/09 05:05:19;;;;;;;19.50;5.07;;;13.00;99.90;;;;;;5075175;28;20029;-66
2023/03/09 05:07:45;;;;;;;17.00;5.10;;;12.90;99.90;;;;;;5074374;28;20049;-68
2023/03/09 05:10:11;;;;;;;18.07;5.07;;;13.00;99.90;;;;;;5074447;28;20123;-66
2023/03/09 05:12:39;;;;;;;18.10;4.75;;;13.00;99.90;;;;;;5074402;28;20102;-66
2023/03/09 05:15:08;;;;;;;21.27;4.85;;;13.00;99.90;;;;;;5074363;28;20034;-66
2023/03/09 05:17:34;;;;;;;18.27;4.97;;;13.00;99.90;;;;;;5056773;28;20021;-66
2023/03/09 05:20:07;;;;;;;17.23;5.22;;;13.00;99.90;;;;;;5075090;28;20427;-66
2023/03/09 05:22:33;;;;;;;18.77;5.15;;;13.00;99.90;;;;;;5075189;28;20024;-66
2023/03/09 05:24:59;;;;;;;17.53;4.63;;;13.00;99.90;;;;;;5074910;28;20024;-66
2023/03/09 05:27:25;;;;;;;21.53;5.20;;;13.00;99.90;;;;;;5074340;28;20494;-66
2023/03/09 05:29:53;;;;;;;12.13;4.57;;;13.00;99.90;;;;;;5074220;28;20029;-67
2023/03/09 05:32:20;;;;;;;16.45;5.03;;;13.10;99.90;;;;;;5073881;28;20023;-67
2023/03/09 05:34:47;;;;;;;19.43;5.13;;;13.10;99.90;;;;;;5074403;28;20066;-65
2023/03/09 05:37:13;;;;;;;17.70;5.15;;;13.10;99.90;;;;;;5074281;28;20100;-67
2023/03/09 05:39:39;;;;;;;16.60;4.38;;;13.10;99.90;;;;;;5074845;28;20017;-66
2023/03/09 05:42:05;;;;;;;18.05;4.28;;;13.10;99.90;;;;;;5074109;28;20016;-66
2023/03/09 05:44:32;;;;;;;15.38;3.90;;;13.20;99.90;;;;;;5074194;28;20119;-65
2023/03/09 05:46:58;;;;;;;17.10;4.22;;;13.30;99.90;;;;;;5074053;28;20024;-67
2023/03/09 05:49:27;;;;;;;13.63;3.85;;;13.30;99.90;;;;;;5044154;28;20039;-66
2023/03/09 05:51:54;;;;;;;13.30;3.92;;;13.30;99.90;;;;;;5054279;28;20021;-66
2023/03/09 05:54:22;;;;;;;13.50;3.88;;;13.40;99.90;;;;;;5053887;28;20366;-67
2023/03/09 05:56:52;;;;;;;13.32;3.47;;;13.40;99.90;;;;;;5053673;28;20033;-66
2023/03/09 05:59:18;;;;;;;17.05;4.13;;;13.50;99.90;;;;;;5035284;28;20052;-66
2023/03/09 06:01:45;;;;;;;;;;;13.60;99.90;;;;;;5053689;28;20087;-67
2023/03/09 06:04:11;;;;;;;15.68;3.88;;;13.90;99.90;;;;;;5053094;28;19908;-66
2023/03/09 06:06:37;;;;;;;14.47;3.23;;;14.30;99.90;;;;;;5057860;28;20036;-69
2023/03/09 06:09:04;;;;;;;14.63;3.50;;;14.80;99.90;;;;;;5073256;28;20059;-66
2023/03/09 06:11:31;;;;;;;11.43;3.42;;;15.60;99.90;;;;;;5073167;28;20107;-66
2023/03/09 06:14:00;;;;;;;15.90;3.25;;;16.40;99.90;;;;;;5088646;28;20033;-68
2023/03/09 06:16:26;;;;;;;10.52;2.83;;;17.10;99.90;;;;;;5073961;28;20028;-67
2023/03/09 06:18:55;;;;;;;9.75;2.33;;;17.70;99.90;;;;;;5055421;28;20051;-67
2023/03/09 06:21:21;;;;;;;13.35;2.75;;;18.40;99.90;;;;;;5073286;28;20032;-66
2023/03/09 06:23:48;;;;;;;11.98;2.97;;;19.30;99.90;;;;;;5073297;28;20376;-66
2023/03/09 06:26:14;;;;;;;17.02;2.70;;;20.60;99.90;;;;;;5073008;28;20039;-67
2023/03/09 06:28:42;;;;;;;9.52;3.03;;;21.50;99.90;;;;;;5072851;28;20112;-67
2023/03/09 06:31:11;;;;;;;11.35;2.90;;;21.80;99.90;;;;;;5073441;28;20085;-67
2023/03/09 06:33:38;;;;;;;12.80;2.60;;;21.90;99.90;;;;;;5073407;28;20028;-67
2023/03/09 06:36:08;;;;;;;11.07;2.88;;;22.20;99.90;;;;;;5072893;28;20056;-67
2023/03/09 06:38:39;;;;;;;10.93;2.83;;;22.90;99.90;;;;;;5073559;28;20413;-67
2023/03/09 06:41:05;;;;;;;9.95;2.50;;;23.60;99.90;;;;;;5072786;28;20095;-65
2023/03/09 06:43:31;;;;;;;13.70;2.90;;;23.40;99.90;;;;;;5072754;28;20023;-64
2023/03/09 06:45:57;;;;;;;8.70;2.50;;;23.60;99.90;;;;;;5073021;28;20024;-67
2023/03/09 06:48:24;;;;;;;9.48;2.40;;;23.70;99.90;;;;;;5072127;28;20037;-67
2023/03/09 06:50:50;;;;;;;10.40;2.53;;;24.20;99.90;;;;;;5072190;28;20490;-66
2023/03/09 06:53:21;;;;;;;14.30;2.60;;;23.90;99.90;;;;;;5071919;28;20096;-68
2023/03/09 06:55:47;;;;;;;9.10;2.60;;;24.00;99.90;;;;;;5072090;28;20057;-68
2023/03/09 06:58:14;;;;;;;11.23;2.78;;;23.90;99.90;;;;;;5072335;28;20074;-67
2023/03/09 07:00:43;;;;;;;10.07;2.70;;;23.40;99.90;;;;;;5072369;28;20055;-67
2023/03/09 07:03:15;;;;;;;13.55;2.45;;;23.00;99.90;;;;;;5072072;28;20039;-67
2023/03/09 07:05:41;;;;;;;8.75;2.30;;;22.70;99.90;;;;;;5072628;28;20097;-67
2023/03/09 07:08:08;;;;;;;9.13;2.40;;;23.30;99.90;;;;;;5071927;28;20425;-67
2023/03/09 07:10:35;;;;;;;10.85;2.67;;;23.30;99.90;;;;;;5071852;28;20020;-67
2023/03/09 07:13:01;;;;;;;12.25;2.85;;;23.10;99.90;;;;;;5072023;28;20029;-67
2023/03/09 07:15:28;;;;;;;9.90;2.40;;;23.40;99.90;;;;;;5070862;28;20306;-67
2023/03/09 07:17:56;;;;;;;11.48;2.47;;;22.90;99.90;;;;;;5071633;28;20050;-67
2023/03/09 07:20:24;;;;;;;9.73;2.38;;;23.00;99.90;;;;;;5087660;28;20101;-67
2023/03/09 07:22:51;;;;;;;9.95;2.50;;;23.10;99.90;;;;;;5087493;28;20059;-67
2023/03/09 07:25:17;;;;;;;9.05;2.30;;;23.10;99.90;;;;;;5072179;28;20028;-67
2023/03/09 07:27:44;;;;;;;11.52;2.42;;;23.20;99.90;;;;;;5071514;28;20024;-65
2023/03/09 07:30:10;;;;;;;9.20;2.60;;;23.50;99.90;;;;;;5087668;28;20033;-66
2023/03/09 07:32:40;;;;;;;14.70;2.70;;;24.10;99.90;;;;;;5071373;28;20055;-65
2023/03/09 07:35:13;;;;;;;10.23;2.30;;;24.20;99.90;;;;;;5071972;28;20052;-66
2023/03/09 07:37:40;;;;;;;9.43;2.28;;;24.50;99.90;;;;;;5069654;28;20041;-68
2023/03/09 07:40:16;;;;;;;12.35;2.10;;;24.50;99.90;;;;;;5071648;28;20355;-67
2023/03/09 07:42:43;;;;;;;7.88;1.98;;;23.70;99.90;;;;;;5071354;28;20108;-66
2023/03/09 07:45:09;;;;;;;9.70;2.47;;;23.80;99.90;;;;;;5071366;28;20053;-65
2023/03/09 07:47:36;;;;;;;10.00;2.30;;;23.80;99.90;;;;;;5071395;28;20033;-67
2023/03/09 07:50:03;;;;;;;10.57;2.45;;;23.30;99.90;;;;;;5081335;28;20495;-69
2023/03/09 07:52:32;;;;;;;10.07;2.10;;;22.80;99.90;;;;;;5090828;28;20031;-66
2023/03/09 07:54:58;;;;;;;10.52;2.28;;;22.20;99.90;;;;;;5091493;28;20028;-66
2023/03/09 07:57:26;;;;;;;14.35;2.55;;;22.00;99.90;;;;;;5089538;28;20031;-67
2023/03/09 07:59:55;;;;;;;13.82;2.42;;;21.50;99.90;;;;;;5071557;28;20028;-66
2023/03/09 08:02:21;;;;;;;10.27;2.35;;;21.50;99.90;;;;;;5074260;28;20043;-67
2023/03/09 08:04:47;;;;;;;9.77;2.15;;;21.50;99.90;;;;;;5059399;28;20025;-67
2023/03/09 08:07:15;;;;;;;8.30;2.53;;;21.60;99.90;;;;;;5069765;28;20040;-68
2023/03/09 08:09:41;;;;;;;9.82;2.50;;;21.70;99.90;;;;;;5069663;28;20369;-66
2023/03/09 08:12:08;;;;;;;8.82;2.45;;;21.90;99.90;;;;;;5070816;28;20024;-66
2023/03/09 08:14:33;;;;;;;;;;;22.20;99.90;;;;;;5054109;28;20383;-66
2023/03/09 08:17:01;;;;;;;10.63;2.38;;;22.10;99.90;;;;;;5071130;28;20300;-67
2023/03/09 08:19:27;;;;;;;13.40;2.60;;;22.20;99.90;;;;;;5076153;28;20032;-66
2023/03/09 08:21:53;;;;;;;7.63;1.95;;;22.30;99.90;;;;;;5087650;28;20039;-65
2023/03/09 08:24:19;;;;;;;7.65;2.08;;;22.20;99.90;;;;;;5091122;28;20025;-66
2023/03/09 08:26:45;;;;;;;9.20;2.35;;;22.30;99.90;;;;;;5092443;28;20028;-66
2023/03/09 08:29:11;;;;;;;6.82;1.90;;;22.20;99.90;;;;;;5095047;28;20020;-67
2023/03/09 08:31:37;;;;;;;12.20;2.10;;;22.30;99.90;;;;;;5076751;28;20107;-67
2023/03/09 08:34:04;;;;;;;7.78;2.08;;;22.10;99.90;;;;;;5094935;28;20076;-67
2023/03/09 08:36:31;;;;;;;11.45;2.13;;;22.50;99.90;;;;;;5091151;28;20453;-66
2023/03/09 08:39:02;;;;;;;7.72;1.77;;;22.20;99.90;;;;;;5074014;28;20027;-67
2023/03/09 08:41:29;;;;;;;9.15;1.75;;;22.50;99.90;;;;;;5074080;28;20074;-67
2023/03/09 08:43:58;;;;;;;10.95;2.20;;;22.60;99.90;;;;;;5074027;28;20452;-70
2023/03/09 08:46:27;;;;;;;9.02;2.22;;;22.50;99.90;;;;;;5074020;28;20032;-66
2023/03/09 08:48:53;;;;;;;11.18;2.45;;;22.40;99.90;;;;;;5073906;28;20052;-65
2023/03/09 08:51:20;;;;;;;8.18;1.95;;;22.70;99.90;;;;;;5074480;28;20104;-65
2023/03/09 08:53:46;;;;;;;7.90;2.33;;;22.30;99.90;;;;;;5074491;28;20025;-65
2023/03/09 08:56:14;;;;;;;8.90;2.53;;;22.50;99.90;;;;;;5073664;28;20031;-65
2023/03/09 08:58:42;;;;;;;9.88;2.17;;;22.40;99.90;;;;;;5088909;28;20108;-65
2023/03/09 09:01:09;;;;;;;12.30;3.00;;;22.50;99.90;;;;;;5073195;28;20119;-66
2023/03/09 09:03:38;;;;;;;12.75;3.15;;;22.60;99.90;;;;;;5073254;28;20150;-65
2023/03/09 09:06:14;;;;;;;21.92;3.80;;;22.60;99.90;;;;;;5088779;28;20028;-66
2023/03/09 09:08:41;;;;;;;14.23;2.83;;;22.60;99.90;;;;;;5073846;28;20522;-66
2023/03/09 09:11:13;;;;;;;16.40;3.45;;;22.20;99.90;;;;;;5073474;28;20058;-67
2023/03/09 09:13:40;;;;;;;13.23;3.00;;;22.00;99.90;;;;;;5088586;28;20030;-66
2023/03/09 09:16:11;;;;;;;12.65;3.40;;;21.90;99.90;;;;;;5055614;28;20029;-65
2023/03/09 09:18:41;;;;;;;12.52;3.05;;;22.20;99.90;;;;;;5073840;28;20448;-65
2023/03/09 09:21:09;;;;;;;9.95;2.50;;;22.20;99.90;;;;;;5057865;28;20020;-62
2023/03/09 09:23:37;;;;;;;14.63;3.00;;;22.30;99.90;;;;;;5081326;28;20020;-65
2023/03/09 09:26:03;;;;;;;10.52;2.65;;;22.10;99.90;;;;;;5081806;28;20024;-66
2023/03/09 09:28:30;;;;;;;13.13;3.00;;;22.20;99.90;;;;;;5073601;28;20062;-66
2023/03/09 09:30:59;;;;;;;16.15;3.67;;;21.80;99.90;;;;;;5072780;28;20413;-66
2023/03/09 09:33:30;;;;;;;16.17;3.17;;;21.70;99.90;;;;;;5091097;28;20055;-66
2023/03/09 09:36:05;;;;;;;11.82;3.15;;;21.50;99.90;;;;;;5074993;28;20417;-65
2023/03/09 09:38:35;;;;;;;8.85;2.40;;;21.60;99.90;;;;;;5052389;28;20035;-66
2023/03/09 09:41:14;;;;;;;8.52;2.15;;;21.50;99.90;;;;;;5066543;28;20278;-66
2023/03/09 09:43:42;;;;;;;9.43;2.47;;;21.40;99.90;;;;;;5074686;28;20077;-66
2023/03/09 09:46:13;;;;;;;9.30;1.90;;;21.00;99.90;;;;;;5053303;28;20021;-67
2023/03/09 09:48:41;;;;;;;6.05;1.80;;;21.00;99.90;;;;;;5080586;28;20047;-66
2023/03/09 09:51:41;;;;;;;10.32;2.10;;;20.90;99.90;;;;;;5089520;28;20016;-66
2023/03/09 09:54:41;;;;;;;10.43;2.22;;;21.10;99.90;;;;;;5093242;28;20028;-65
2023/03/09 09:57:33;;;;;;;6.85;2.00;;;21.10;99.90;;;;;;5093001;28;20036;-66
2023/03/09 10:00:24;;;;;;;10.45;2.40;;;20.90;99.90;;;;;;5093313;28;20020;-65
2023/03/09 10:03:05;;;;;;;9.25;2.50;;;21.10;99.90;;;;;;5092922;28;20024;-67
2023/03/09 10:05:51;;;;;;;9.77;3.10;;;20.90;99.90;;;;;;5092995;28;20048;-65
2023/03/09 10:08:36;;;;;;;6.10;1.90;;;20.90;99.90;;;;;;5073472;28;20124;-65
2023/03/09 10:11:29;;;;;;;8.63;1.85;;;20.60;99.90;;;;;;5072088;28;20173;-66
2023/03/09 10:14:18;;;;;;;10.35;2.20;;;20.40;99.90;;;;;;5053882;28;20083;-65
2023/03/09 10:17:12;;;;;;;6.80;2.10;;;20.30;99.90;;;;;;5072712;28;20039;-64
2023/03/09 10:19:40;;;;;;;8.15;2.00;;;20.60;99.90;;;;;;5072759;28;20098;-65
2023/03/09 10:22:27;;;;;;;7.20;2.30;;;20.60;99.90;;;;;;5072832;28;20082;-67
2023/03/09 10:24:55;;;;;;;6.30;1.60;;;21.00;99.90;;;;;;5072793;28;20035;-65
2023/03/09 10:27:37;;;;;;;13.07;2.17;;;21.10;99.90;;;;;;5072222;28;20465;-65
2023/03/09 10:30:10;;;;;;;7.90;1.92;;;21.20;99.90;;;;;;5072517;28;20028;-65
2023/03/09 10:32:47;;;;;;;7.22;2.80;;;21.20;99.90;;;;;;5071975;28;20097;-65
2023/03/09 10:35:46;;;;;;;8.40;2.30;;;21.20;99.90;;;;;;5072284;28;20498;-66
2023/03/09 10:38:17;;;;;;;7.68;2.30;;;21.30;99.90;;;;;;5071905;28;20086;-65
2023/03/09 10:40:57;;;;;;;7.13;1.80;;;21.30;99.90;;;;;;5072029;28;20094;-65
2023/03/09 10:43:36;;;;;;;7.25;2.10;;;20.90;99.90;;;;;;5071718;28;20021;-65
2023/03/09 10:46:16;;;;;;;28.50;3.38;;;21.00;99.90;;;;;;5054210;28;20086;-67
2023/03/09 10:48:46;;;;;;;13.40;2.97;;;21.00;99.90;;;;;;5070874;28;20067;-66
2023/03/09 10:51:47;;;;;;;6.85;2.75;;;21.20;99.90;;;;;;5071688;28;20101;-65
2023/03/09 10:54:23;;;;;;;7.50;2.53;;;21.20;99.90;;;;;;5009522;28;20045;-66
2023/03/09 10:56:49;;;;;;;8.50;2.47;;;21.40;99.90;;;;;;5010001;28;20034;-67
2023/03/09 10:59:18;;;;;;;10.77;2.33;;;21.50;99.90;;;;;;5009608;28;20502;-67
2023/03/09 11:01:47;;;;;;;6.25;1.90;;;21.50;99.90;;;;;;5009456;28;20026;-66
2023/03/09 11:04:22;;;;;;;6.95;2.13;;;21.50;99.90;;;;;;5009176;28;20034;-66
2023/03/09 11:07:11;;;;;;;8.30;1.88;;;21.70;99.90;;;;;;5009052;28;20549;-66
2023/03/09 11:09:42;;;;;;;7.40;2.00;;;21.80;99.90;;;;;;5009816;28;20506;-66
2023/03/09 11:12:27;;;;;;;6.13;2.03;;;21.70;99.90;;;;;;5009517;28;20077;-66
2023/03/09 11:14:59;;;;;;;7.07;1.90;;;21.70;99.90;;;;;;4993262;28;20133;-66
2023/03/09 11:17:35;;;;;;;8.77;1.90;;;21.30;99.90;;;;;;5014662;28;20363;-67
2023/03/09 11:20:24;;;;;;;13.20;2.20;;;21.30;99.90;;;;;;5017852;28;20022;-66
2023/03/09 11:22:58;;;;;;;9.80;2.05;;;21.20;99.90;;;;;;5013452;28;20048;-66
2023/03/09 11:25:49;;;;;;;10.93;2.40;;;21.30;99.90;;;;;;5028838;28;20037;-66
2023/03/09 11:28:27;;;;;;;8.35;2.00;;;21.40;99.90;;;;;;5028748;28;20098;-69
2023/03/09 11:30:56;;;;;;;9.80;2.28;;;21.40;99.90;;;;;;5039975;28;20032;-66
2023/03/09 11:33:23;;;;;;;8.82;2.47;;;21.50;99.90;;;;;;5091715;28;20530;-66
2023/03/09 11:35:53;;;;;;;10.85;2.30;;;21.60;99.90;;;;;;5091836;28;20024;-66
2023/03/09 11:38:22;;;;;;;9.30;2.00;;;21.90;99.90;;;;;;5072424;28;20047;-67
2023/03/09 11:40:58;;;;;;;11.32;2.35;;;21.80;99.90;;;;;;5071636;28;20031;-66
2023/03/09 11:43:32;;;;;;;8.15;2.60;;;21.60;99.90;;;;;;5072129;28;20027;-66
2023/03/09 11:46:01;;;;;;;9.98;2.25;;;21.80;99.90;;;;;;5053618;28;20082;-66
2023/03/09 11:48:37;;;;;;;10.75;2.75;;;21.80;99.90;;;;;;5071767;28;20064;-66
2023/03/09 11:51:27;;;;;;;9.48;2.13;;;22.00;99.90;;;;;;5070791;28;20376;-64
2023/03/09 11:53:56;;;;;;;10.07;2.42;;;22.10;99.90;;;;;;5062461;28;20116;-65
2023/03/09 11:56:38;;;;;;;8.77;2.03;;;21.90;99.90;;;;;;5052644;28;20024;-63
2023/03/09 11:59:35;;;;;;;9.05;2.72;;;21.90;99.90;;;;;;5053054;28;20020;-65
2023/03/09 12:02:22;;;;;;;7.15;2.03;;;21.90;99.90;;;;;;5074694;28;20033;-65
2023/03/09 12:04:51;;;;;;;12.85;2.03;;;21.70;99.90;;;;;;5075142;28;20031;-66
2023/03/09 12:07:32;;;;;;;9.30;1.90;;;21.80;99.90;;;;;;5074205;28;20354;-66
2023/03/09 12:10:31;;;;;;;9.68;1.83;;;21.90;99.90;;;;;;5090295;28;20095;-65
2023/03/09 12:13:04;;;;;;;11.95;1.80;;;21.60;99.90;;;;;;5073886;28;20123;-65
2023/03/09 12:15:30;;;;;;;7.93;1.90;;;21.60;99.90;;;;;;5073894;28;20052;-64
2023/03/09 12:18:01;;;;;;;9.82;2.00;;;21.80;99.90;;;;;;5074914;28;20056;-66
2023/03/09 12:20:48;;;;;;;9.68;1.85;;;21.70;99.90;;;;;;5075301;28;20013;-67
2023/03/09 12:23:36;;;;;;;7.85;1.73;;;21.80;99.90;;;;;;5057145;28;20074;-65
2023/03/09 12:26:24;;;;;;;5.70;1.77;;;21.60;99.90;;;;;;5074699;28;20108;-64
2023/03/09 12:29:23;;;;;;;7.38;1.77;;;21.60;99.90;;;;;;5063629;28;20116;-64
2023/03/09 12:32:16;;;;;;;6.25;1.30;;;21.50;99.90;;;;;;5012698;28;20101;-65
2023/03/09 12:34:43;;;;;;;7.68;1.58;;;21.50;99.90;;;;;;5013044;28;20431;-66
2023/03/09 12:37:30;;;;;;;6.88;2.00;;;21.70;99.90;;;;;;5012598;28;20137;-63
2023/03/09 12:40:15;;;;;;;8.90;2.00;;;22.00;99.90;;;;;;5012701;28;20514;-64
2023/03/09 12:42:45;;;;;;;9.48;1.88;;;22.10;99.90;;;;;;5012152;28;20490;-64
2023/03/09 12:45:14;;;;;;;11.30;2.10;;;22.50;99.90;;;;;;5012990;28;20040;-65
2023/03/09 12:47:43;;;;;;;7.45;1.92;;;22.50;99.90;;;;;;5013130;28;20072;-63
2023/03/09 12:50:49;;;;;;;9.35;2.28;;;22.60;99.90;;;;;;5012857;28;20092;-64
2023/03/09 12:53:30;;;;;;;9.60;2.08;;;22.60;99.90;;;;;;5011072;28;20041;-64
2023/03/09 12:55:59;;;;;;;11.32;1.88;;;22.30;99.90;;;;;;5012889;28;20164;-64
2023/03/09 12:58:25;;;;;;;9.23;1.70;;;22.40;99.90;;;;;;5012677;28;20064;-64
2023/03/09 13:01:10;;;;;;;5.57;1.73;;;22.30;99.90;;;;;;5012450;28;20069;-64